createdAt,value
2022-10-23T00:03:59.845Z,0
2022-10-23T00:09:12.105Z,0
2022-10-23T00:14:24.522Z,0
2022-10-23T00:19:36.832Z,0
2022-10-23T00:24:49.108Z,0
2022-10-23T00:30:05.121Z,0
2022-10-23T00:35:17.490Z,0
2022-10-23T00:40:29.668Z,0
2022-10-23T00:45:41.944Z,0
2022-10-23T00:50:54.395Z,0
2022-10-23T00:56:06.568Z,0
2022-10-23T01:01:19.081Z,0
2022-10-23T01:06:31.087Z,0
2022-10-23T01:11:43.709Z,0
2022-10-23T01:16:56.097Z,0
2022-10-23T01:22:08.526Z,0
2022-10-23T01:27:20.893Z,0
2022-10-23T01:32:33.059Z,0
2022-10-23T01:37:45.386Z,0
2022-10-23T01:53:22.457Z,0
2022-10-23T01:58:34.839Z,0
2022-10-23T02:03:47.205Z,0
2022-10-23T02:08:59.286Z,0
2022-10-23T02:14:11.734Z,0
2022-10-23T02:19:24.227Z,0
2022-10-23T02:24:36.505Z,0
2022-10-23T02:29:48.760Z,0
2022-10-23T02:35:01.039Z,0
2022-10-23T02:40:14.168Z,0
2022-10-23T02:45:26.521Z,0
2022-10-23T02:50:38.689Z,0
2022-10-23T02:55:51.046Z,0
2022-10-23T03:01:03.476Z,0
2022-10-23T03:06:21.221Z,0
2022-10-23T03:11:28.544Z,0
2022-10-23T03:16:40.917Z,0
2022-10-23T03:21:53.294Z,0
2022-10-23T03:27:05.539Z,0
2022-10-23T03:32:18.176Z,0
2022-10-23T03:37:30.639Z,0
2022-10-23T03:42:43.097Z,0
2022-10-23T03:47:56.060Z,0
2022-10-23T03:53:08.258Z,0
2022-10-23T03:58:20.552Z,0
2022-10-23T04:03:32.923Z,0
2022-10-23T04:08:45.126Z,0
2022-10-23T04:13:57.342Z,0
2022-10-23T04:19:09.597Z,0
2022-10-23T04:24:21.793Z,0
2022-10-23T04:29:34.096Z,0
2022-10-23T04:34:46.468Z,0
2022-10-23T04:45:11.242Z,0
2022-10-23T04:50:23.603Z,0
2022-10-23T04:55:35.804Z,0
2022-10-23T05:00:48.160Z,0
2022-10-23T05:06:00.290Z,0
2022-10-23T05:11:12.579Z,0
2022-10-23T05:16:24.814Z,0
2022-10-23T05:21:37.142Z,0
2022-10-23T05:26:49.418Z,69
2022-10-23T05:32:01.847Z,903
2022-10-23T05:37:14.226Z,1219
2022-10-23T05:42:26.518Z,2129
2022-10-23T05:47:38.854Z,2500
2022-10-23T05:52:51.309Z,3424
2022-10-23T05:58:03.354Z,4303
2022-10-23T06:03:15.705Z,4988
2022-10-23T06:08:28.266Z,5172
2022-10-23T06:13:40.565Z,5154
2022-10-23T06:18:52.787Z,5161
2022-10-23T06:24:05.112Z,5175
2022-10-23T06:29:17.330Z,5089
2022-10-23T06:34:29.753Z,5175
2022-10-23T06:39:42.127Z,5177
2022-10-23T06:44:54.462Z,5092
2022-10-23T06:50:08.634Z,5170
2022-10-23T06:55:19.403Z,5181
2022-10-23T07:00:31.703Z,5099
2022-10-23T07:05:44.208Z,5181
2022-10-23T07:10:56.587Z,5154
2022-10-23T07:16:08.848Z,5156
2022-10-23T07:21:21.377Z,5129
2022-10-23T07:26:33.848Z,5154
2022-10-23T07:31:46.220Z,5126
2022-10-23T07:36:58.616Z,5140
2022-10-23T07:42:11.067Z,5140
2022-10-23T07:47:23.906Z,5145
2022-10-23T07:52:36.322Z,5184
2022-10-23T07:57:48.537Z,5186
2022-10-23T08:03:00.773Z,5186
2022-10-23T08:08:13.208Z,5186
2022-10-23T08:13:25.536Z,5168
2022-10-23T08:18:38.070Z,5158
2022-10-23T08:23:50.380Z,5096
2022-10-23T08:29:02.966Z,5188
2022-10-23T08:34:15.266Z,5119
2022-10-23T08:39:27.509Z,5161
2022-10-23T08:44:39.926Z,5188
2022-10-23T08:49:52.312Z,5149
2022-10-23T08:55:04.703Z,5156
2022-10-23T09:00:17.209Z,5191
2022-10-23T09:05:29.491Z,5142
2022-10-23T09:10:41.790Z,5193
2022-10-23T09:15:54.147Z,5112
2022-10-23T09:21:06.611Z,5198
2022-10-23T09:26:19.186Z,5202
2022-10-23T09:31:31.586Z,5184
2022-10-23T09:36:44.001Z,5191
2022-10-23T09:41:57.007Z,5200
2022-10-23T09:47:08.720Z,5211
2022-10-23T09:52:21.115Z,5184
2022-10-23T09:57:33.529Z,5218
2022-10-23T10:02:45.780Z,5207
2022-10-23T10:07:58.501Z,5152
2022-10-23T10:13:14.219Z,5207
2022-10-23T10:18:23.632Z,5216
2022-10-23T10:23:35.887Z,5207
2022-10-23T10:28:48.307Z,5218
2022-10-23T10:34:00.806Z,5221
2022-10-23T10:39:13.150Z,5225
2022-10-23T10:44:25.833Z,5234
2022-10-23T10:49:38.182Z,5239
2022-10-23T10:54:50.609Z,5241
2022-10-23T11:00:02.834Z,5239
2022-10-23T11:05:15.206Z,5237
2022-10-23T11:10:27.444Z,5237
2022-10-23T11:15:40.079Z,5237
2022-10-23T11:20:52.562Z,5225
2022-10-23T11:26:04.821Z,5241
2022-10-23T11:31:17.211Z,5244
2022-10-23T11:36:29.605Z,5246
2022-10-23T11:41:42.130Z,5237
2022-10-23T11:46:54.559Z,5244
2022-10-23T11:52:07.072Z,5239
2022-10-23T11:57:19.517Z,5246
2022-10-23T12:02:32.032Z,5253
2022-10-23T12:07:44.348Z,5244
2022-10-23T12:12:56.599Z,5257
2022-10-23T12:18:09.348Z,5223
2022-10-23T12:23:21.680Z,5207
2022-10-23T12:28:33.885Z,5230
2022-10-23T12:33:46.407Z,5241
2022-10-23T12:38:58.696Z,5204
2022-10-23T12:44:10.810Z,5246
2022-10-23T12:49:23.188Z,5244
2022-10-23T12:54:35.418Z,5218
2022-10-23T12:59:47.620Z,5218
2022-10-23T13:04:59.939Z,5239
2022-10-23T13:10:12.216Z,5239
2022-10-23T13:15:24.384Z,5234
2022-10-23T13:20:36.609Z,5232
2022-10-23T13:31:01.567Z,5198
2022-10-23T13:36:13.984Z,5211
2022-10-23T13:41:26.301Z,5230
2022-10-23T13:46:38.617Z,5239
2022-10-23T13:51:50.885Z,5230
2022-10-23T13:57:03.435Z,5232
2022-10-23T14:02:15.552Z,5237
2022-10-23T14:07:27.723Z,5202
2022-10-23T14:12:40.145Z,5216
2022-10-23T14:17:55.282Z,5234
2022-10-23T14:23:04.607Z,5225
2022-10-23T14:28:16.948Z,5214
2022-10-23T14:33:29.235Z,5216
2022-10-23T14:38:41.579Z,5234
2022-10-23T14:43:53.885Z,5234
2022-10-23T14:49:06.074Z,5232
2022-10-23T14:54:17.704Z,5214
2022-10-23T14:59:29.829Z,5225
2022-10-23T15:04:42.123Z,5209
2022-10-23T15:09:54.746Z,5230
2022-10-23T15:15:07.092Z,5227
2022-10-23T15:20:19.429Z,5225
2022-10-23T15:25:31.756Z,5223
2022-10-23T15:30:44.080Z,5204
2022-10-23T15:35:56.291Z,4926
2022-10-23T15:41:08.629Z,3767
2022-10-23T15:46:20.965Z,2691
2022-10-23T15:51:33.161Z,1575
2022-10-23T15:56:45.788Z,761
2022-10-23T16:01:58.276Z,266
2022-10-23T16:07:10.375Z,0
2022-10-23T16:12:22.744Z,0
2022-10-23T16:17:35.087Z,0
2022-10-23T16:22:47.512Z,0
2022-10-23T16:27:59.719Z,0
2022-10-23T16:33:11.898Z,0
2022-10-23T16:38:24.590Z,0
2022-10-23T16:43:36.873Z,0
2022-10-23T16:48:49.236Z,0
2022-10-23T16:54:01.544Z,0
2022-10-23T16:59:14.057Z,0
2022-10-23T17:04:26.428Z,0
2022-10-23T17:09:38.711Z,0
2022-10-23T17:14:51.046Z,0
2022-10-23T17:20:03.591Z,0
2022-10-23T17:25:16.106Z,0
2022-10-23T17:30:28.628Z,0
2022-10-23T17:35:40.760Z,0
2022-10-23T17:40:53.077Z,0
2022-10-23T17:46:05.313Z,0
2022-10-23T17:51:17.743Z,0
2022-10-23T17:56:30.349Z,0
2022-10-23T18:01:42.910Z,0
2022-10-23T18:06:55.096Z,0
2022-10-23T18:12:07.518Z,0
2022-10-23T18:17:19.908Z,0
2022-10-23T18:22:32.108Z,0
2022-10-23T18:27:45.702Z,0
2022-10-23T18:32:57.940Z,0
2022-10-23T18:38:10.420Z,0
2022-10-23T18:43:38.758Z,0
2022-10-23T18:48:35.012Z,0
2022-10-23T18:53:47.705Z,0
2022-10-23T18:59:00.058Z,0
2022-10-23T19:04:13.619Z,0
2022-10-23T19:09:26.068Z,0
2022-10-23T19:14:38.580Z,0
2022-10-23T19:19:51.096Z,0
2022-10-23T19:25:03.267Z,0
2022-10-23T19:30:16.307Z,0
2022-10-23T19:35:27.952Z,0
2022-10-23T19:40:40.405Z,0
2022-10-23T19:45:52.588Z,0
2022-10-23T19:51:04.925Z,0
2022-10-23T19:56:17.191Z,0
2022-10-23T20:01:29.617Z,0
2022-10-23T20:06:41.906Z,0
2022-10-23T20:11:54.128Z,0
2022-10-23T20:17:06.960Z,0
2022-10-23T20:22:19.198Z,0
2022-10-23T20:27:31.668Z,0
2022-10-23T20:32:44.355Z,0
2022-10-23T20:37:56.257Z,0
2022-10-23T20:43:08.598Z,0
2022-10-23T20:48:20.805Z,0
2022-10-23T20:53:33.337Z,0
2022-10-23T20:58:45.680Z,0
2022-10-23T21:03:58.088Z,0
2022-10-23T21:14:22.862Z,0
2022-10-23T21:19:35.257Z,0
2022-10-23T21:24:47.777Z,0
2022-10-23T21:29:59.996Z,0
2022-10-23T21:35:12.375Z,0
2022-10-23T21:40:24.934Z,0
2022-10-23T21:45:37.294Z,0
2022-10-23T21:56:01.989Z,0
2022-10-23T22:01:14.461Z,0
2022-10-23T22:06:26.622Z,0
2022-10-23T22:11:38.959Z,0
2022-10-23T22:16:51.233Z,0
2022-10-23T22:22:03.509Z,0
2022-10-23T22:27:15.950Z,0
2022-10-23T22:32:28.515Z,0
2022-10-23T22:37:40.876Z,0
2022-10-23T22:42:54.107Z,0
2022-10-23T22:48:06.467Z,0
2022-10-23T22:53:18.815Z,0
2022-10-23T22:58:31.247Z,0
2022-10-23T23:03:43.600Z,0
2022-10-23T23:08:55.789Z,0
2022-10-23T23:14:08.128Z,0
2022-10-23T23:19:20.464Z,0
2022-10-23T23:24:32.861Z,0
2022-10-23T23:29:45.078Z,0
2022-10-23T23:34:57.542Z,0
2022-10-23T23:40:10.041Z,0
2022-10-23T23:45:22.656Z,0
2022-10-23T23:50:34.914Z,0
2022-10-23T23:55:47.450Z,0
